Terminal Aerodrome Forecast
Issued by NWS

Home | Current Version | Previous Version | Text Only | Print | Product List | Glossary On
Versions: 1 2 3 4 5 6 7 8 9 10
000
FTUS42 KTAE 280500
TAFVLD
TAF
KVLD 280524Z 2806/2906 00000KT 4SM BR BKN250
     FM280900 00000KT 3/4SM BR OVC002
     FM281300 19004KT P6SM OVC004
     FM281500 20007KT P6SM OVC015=

USA.gov is the U.S. government's official web portal to all federal, state and local government web resources and services.